createdAt,value
2017-05-23T00:00:17.869Z,0
2017-05-23T00:00:58.352Z,0
2017-05-23T00:01:38.831Z,0
2017-05-23T00:02:19.328Z,0
2017-05-23T00:02:59.817Z,0
2017-05-23T00:03:40.309Z,0
2017-05-23T00:04:20.807Z,0
2017-05-23T00:05:01.297Z,0
2017-05-23T00:05:41.775Z,0
2017-05-23T00:06:22.279Z,0
2017-05-23T00:07:03.680Z,0
2017-05-23T00:07:44.148Z,0
2017-05-23T00:08:24.616Z,0
2017-05-23T00:09:05.055Z,0
2017-05-23T00:11:02.684Z,0
2017-05-23T00:11:43.182Z,0
2017-05-23T00:12:23.658Z,0
2017-05-23T00:13:04.140Z,0
2017-05-23T00:13:44.606Z,0
2017-05-23T00:14:26.083Z,0
2017-05-23T00:15:06.624Z,0
2017-05-23T00:15:47.049Z,0
2017-05-23T00:16:27.521Z,0
2017-05-23T00:17:08.010Z,0
2017-05-23T00:17:48.499Z,0
2017-05-23T00:18:28.997Z,0
2017-05-23T00:19:10.187Z,0
2017-05-23T00:19:50.689Z,0
2017-05-23T00:20:31.182Z,0
2017-05-23T00:21:12.190Z,0
2017-05-23T00:21:52.660Z,0
2017-05-23T00:24:05.457Z,0
2017-05-23T00:24:45.943Z,0
2017-05-23T00:25:27.374Z,0
2017-05-23T00:26:07.864Z,0
2017-05-23T00:26:48.338Z,0
2017-05-23T00:29:16.256Z,0
2017-05-23T00:29:56.741Z,0
2017-05-23T00:30:37.230Z,0
2017-05-23T00:31:17.765Z,0
2017-05-23T00:31:58.194Z,0
2017-05-23T00:32:38.675Z,0
2017-05-23T00:33:20.095Z,0
2017-05-23T00:34:00.620Z,0
2017-05-23T00:36:19.952Z,0
2017-05-23T00:37:00.460Z,0
2017-05-23T00:37:40.924Z,0
2017-05-23T00:38:21.442Z,0
2017-05-23T00:39:01.927Z,0
2017-05-23T00:39:42.964Z,0
2017-05-23T00:40:23.439Z,0
2017-05-23T00:41:03.899Z,0
2017-05-23T00:41:44.378Z,0
2017-05-23T00:42:24.851Z,0
2017-05-23T00:43:05.363Z,0
2017-05-23T00:45:23.156Z,0
2017-05-23T00:46:03.648Z,0
2017-05-23T00:46:44.146Z,0
2017-05-23T00:47:24.616Z,0
2017-05-23T00:49:42.403Z,0
2017-05-23T00:50:22.897Z,0
2017-05-23T00:51:03.436Z,0
2017-05-23T00:51:43.863Z,0
2017-05-23T00:52:24.343Z,0
2017-05-23T00:53:04.829Z,0
2017-05-23T00:53:45.325Z,0
2017-05-23T00:54:25.809Z,0
2017-05-23T00:55:06.289Z,0
2017-05-23T00:55:46.797Z,0
2017-05-23T00:56:27.270Z,0
2017-05-23T00:57:07.755Z,0
2017-05-23T00:57:48.273Z,0
2017-05-23T00:58:28.745Z,0
2017-05-23T00:59:09.229Z,0
2017-05-23T00:59:49.737Z,0
2017-05-23T01:00:30.224Z,0
2017-05-23T01:01:10.697Z,0
2017-05-23T01:01:51.164Z,0
2017-05-23T01:02:31.638Z,0
2017-05-23T01:03:12.138Z,0
2017-05-23T01:03:52.629Z,0
2017-05-23T01:04:33.123Z,0
2017-05-23T01:05:13.621Z,0
2017-05-23T01:05:54.102Z,0
2017-05-23T01:06:34.601Z,0
2017-05-23T01:07:16.921Z,0
2017-05-23T01:07:57.433Z,0
2017-05-23T01:08:37.937Z,0
2017-05-23T01:09:18.467Z,0
2017-05-23T01:09:59.735Z,0
2017-05-23T01:10:40.222Z,0
2017-05-23T01:11:20.725Z,0
2017-05-23T01:12:01.206Z,0
2017-05-23T01:12:41.674Z,0
2017-05-23T01:13:22.179Z,0
2017-05-23T01:14:02.656Z,0
2017-05-23T01:14:43.145Z,0
2017-05-23T01:15:23.618Z,0
2017-05-23T01:16:04.834Z,0
2017-05-23T01:16:45.320Z,0
2017-05-23T01:17:25.790Z,0
2017-05-23T01:18:06.284Z,0
2017-05-23T01:18:47.724Z,0
2017-05-23T01:19:28.225Z,0
2017-05-23T01:20:08.711Z,0
2017-05-23T01:20:49.171Z,0
2017-05-23T01:21:29.603Z,0
2017-05-23T01:22:10.128Z,0
2017-05-23T01:22:50.619Z,0
2017-05-23T01:23:31.134Z,0
2017-05-23T01:24:11.612Z,0
2017-05-23T01:24:52.109Z,0
2017-05-23T01:25:32.593Z,0
2017-05-23T01:26:14.504Z,0
2017-05-23T01:26:54.981Z,0
2017-05-23T01:28:52.619Z,0
2017-05-23T01:29:33.106Z,0
2017-05-23T01:30:13.582Z,0
2017-05-23T01:30:54.072Z,0
2017-05-23T01:31:34.571Z,0
2017-05-23T01:32:15.109Z,0
2017-05-23T01:32:56.105Z,0
2017-05-23T01:33:37.411Z,0
2017-05-23T01:34:17.895Z,0
2017-05-23T01:34:58.386Z,0
2017-05-23T01:35:38.865Z,0
2017-05-23T01:36:19.342Z,0
2017-05-23T01:36:59.829Z,0
2017-05-23T01:37:40.836Z,0
2017-05-23T01:38:21.320Z,0
2017-05-23T01:39:01.845Z,0
2017-05-23T01:39:42.282Z,0
2017-05-23T01:40:22.778Z,0
2017-05-23T01:41:03.263Z,0
2017-05-23T01:41:43.753Z,0
2017-05-23T01:42:24.231Z,0
2017-05-23T01:43:04.720Z,0
2017-05-23T01:43:45.202Z,0
2017-05-23T01:44:25.704Z,0
2017-05-23T01:45:06.199Z,0
2017-05-23T01:45:46.657Z,0
2017-05-23T01:46:27.136Z,0
2017-05-23T01:47:07.674Z,0
2017-05-23T01:47:48.156Z,0
2017-05-23T01:50:00.897Z,0
2017-05-23T01:52:18.662Z,0
2017-05-23T01:52:59.103Z,0
2017-05-23T01:53:39.548Z,0
2017-05-23T01:54:19.994Z,0
2017-05-23T01:55:00.441Z,0
2017-05-23T01:55:40.903Z,0
2017-05-23T01:56:21.347Z,0
2017-05-23T01:57:01.778Z,0
2017-05-23T01:57:42.232Z,0
2017-05-23T01:58:22.715Z,0
2017-05-23T01:59:03.218Z,0
2017-05-23T01:59:43.698Z,0
2017-05-23T02:00:24.190Z,0
2017-05-23T02:01:04.691Z,0
2017-05-23T02:01:45.139Z,0
2017-05-23T02:02:25.613Z,0
2017-05-23T02:03:06.099Z,0
2017-05-23T02:03:46.599Z,0
2017-05-23T02:04:27.073Z,0
2017-05-23T02:05:07.550Z,0
2017-05-23T02:05:48.024Z,0
2017-05-23T02:06:28.499Z,0
2017-05-23T02:07:09.059Z,0
2017-05-23T02:07:49.632Z,0
2017-05-23T02:08:30.110Z,0
2017-05-23T02:09:10.594Z,0
2017-05-23T02:09:51.041Z,0
2017-05-23T02:10:31.485Z,0
2017-05-23T02:11:11.958Z,0
2017-05-23T02:11:52.375Z,0
2017-05-23T02:12:32.812Z,0
2017-05-23T02:13:13.268Z,0
2017-05-23T02:13:53.749Z,0
2017-05-23T02:14:34.202Z,0
2017-05-23T02:15:14.658Z,0
2017-05-23T02:15:55.104Z,0
2017-05-23T02:16:35.568Z,0
2017-05-23T02:17:16.011Z,0
2017-05-23T02:17:56.482Z,0
2017-05-23T02:18:36.891Z,0
2017-05-23T02:19:17.347Z,0
2017-05-23T02:19:57.806Z,0
2017-05-23T02:20:38.305Z,0
2017-05-23T02:21:18.828Z,0
2017-05-23T02:21:59.299Z,0
2017-05-23T02:22:39.783Z,0
2017-05-23T02:23:20.274Z,0
2017-05-23T02:24:00.756Z,0
2017-05-23T02:24:41.245Z,0
2017-05-23T02:25:21.732Z,0
2017-05-23T02:26:02.231Z,0
2017-05-23T02:26:42.731Z,0
2017-05-23T02:27:23.216Z,0
2017-05-23T02:28:03.703Z,0
2017-05-23T02:28:44.207Z,0
2017-05-23T02:29:24.687Z,0
2017-05-23T02:30:05.147Z,0
2017-05-23T02:30:45.581Z,0
2017-05-23T02:31:26.049Z,0
2017-05-23T02:32:06.530Z,0
2017-05-23T02:32:47.023Z,0
2017-05-23T02:33:27.496Z,0
2017-05-23T02:34:07.982Z,0
2017-05-23T02:34:48.481Z,0
2017-05-23T02:35:28.956Z,0
2017-05-23T02:36:09.444Z,0
2017-05-23T02:36:49.920Z,0
2017-05-23T02:37:30.409Z,0
2017-05-23T02:38:10.893Z,0
2017-05-23T02:38:51.387Z,0
2017-05-23T02:39:31.843Z,0
2017-05-23T02:40:12.341Z,0
2017-05-23T02:40:52.824Z,0
2017-05-23T02:41:33.307Z,0
2017-05-23T02:42:13.814Z,0
2017-05-23T02:42:54.293Z,0
2017-05-23T02:43:34.784Z,0
2017-05-23T02:44:15.241Z,0
2017-05-23T02:44:55.728Z,0
2017-05-23T02:45:36.206Z,0
2017-05-23T02:46:16.697Z,0
2017-05-23T02:46:57.161Z,0
2017-05-23T02:47:37.644Z,0
2017-05-23T02:48:18.148Z,0
2017-05-23T02:48:58.609Z,0
2017-05-23T02:49:39.090Z,0
2017-05-23T02:50:19.579Z,0
2017-05-23T02:51:00.067Z,0
2017-05-23T02:51:40.557Z,0
2017-05-23T02:52:21.009Z,0
2017-05-23T02:53:01.485Z,0
2017-05-23T02:53:41.902Z,0
2017-05-23T02:54:22.387Z,0
2017-05-23T02:55:02.857Z,0
2017-05-23T02:57:00.482Z,0
2017-05-23T02:57:40.986Z,0
2017-05-23T02:58:21.424Z,0
2017-05-23T02:59:01.909Z,0
2017-05-23T02:59:42.400Z,0
2017-05-23T03:00:22.859Z,4
2017-05-23T03:01:03.353Z,4
2017-05-23T03:01:43.849Z,4
2017-05-23T03:02:24.350Z,4
2017-05-23T03:03:04.831Z,4
2017-05-23T03:03:45.335Z,4
2017-05-23T03:04:25.829Z,0
2017-05-23T03:05:06.319Z,4
2017-05-23T03:05:46.842Z,4
2017-05-23T03:06:28.290Z,4
2017-05-23T03:07:08.775Z,8
2017-05-23T03:07:49.782Z,8
2017-05-23T03:08:30.328Z,4
2017-05-23T03:09:11.584Z,8
2017-05-23T03:09:52.067Z,8
2017-05-23T03:10:32.545Z,8
2017-05-23T03:11:13.032Z,8
2017-05-23T03:11:54.378Z,12
2017-05-23T03:12:34.871Z,8
2017-05-23T03:13:15.357Z,12
2017-05-23T03:13:55.853Z,12
2017-05-23T03:14:36.349Z,16
2017-05-23T03:15:16.839Z,12
2017-05-23T03:15:57.316Z,16
2017-05-23T03:16:37.787Z,16
2017-05-23T03:17:18.260Z,20
2017-05-23T03:17:58.749Z,24
2017-05-23T03:18:39.237Z,24
2017-05-23T03:19:20.491Z,24
2017-05-23T03:20:00.964Z,28
2017-05-23T03:20:41.444Z,32
2017-05-23T03:21:21.943Z,32
2017-05-23T03:22:02.420Z,36
2017-05-23T03:22:42.919Z,40
2017-05-23T03:23:23.405Z,40
2017-05-23T03:24:03.892Z,48
2017-05-23T03:26:21.691Z,60
2017-05-23T03:27:02.178Z,64
2017-05-23T03:27:42.664Z,68
2017-05-23T03:28:23.198Z,76
2017-05-23T03:29:03.609Z,80
2017-05-23T03:29:44.088Z,84
2017-05-23T03:30:24.570Z,88
2017-05-23T03:31:05.073Z,92
2017-05-23T03:31:45.563Z,100
2017-05-23T03:32:26.055Z,104
2017-05-23T03:33:06.582Z,108
2017-05-23T03:33:47.794Z,116
2017-05-23T03:34:30.198Z,124
2017-05-23T03:35:10.682Z,132
2017-05-23T03:35:51.173Z,136
2017-05-23T03:36:31.664Z,148
2017-05-23T03:37:12.188Z,156
2017-05-23T03:37:52.654Z,164
2017-05-23T03:38:33.146Z,172
2017-05-23T03:39:13.629Z,184
2017-05-23T03:39:54.120Z,196
2017-05-23T03:40:34.622Z,208
2017-05-23T03:41:15.106Z,220
2017-05-23T03:41:55.601Z,232
2017-05-23T03:42:36.149Z,248
2017-05-23T03:43:16.593Z,260
2017-05-23T03:43:57.088Z,280
2017-05-23T03:44:37.559Z,296
2017-05-23T03:45:18.063Z,312
2017-05-23T03:45:58.554Z,328
2017-05-23T03:46:39.048Z,344
2017-05-23T03:47:19.537Z,360
2017-05-23T03:48:01.004Z,372
2017-05-23T03:48:41.499Z,388
2017-05-23T03:49:21.981Z,404
2017-05-23T03:50:02.479Z,416
2017-05-23T03:50:42.973Z,436
2017-05-23T03:51:23.458Z,456
2017-05-23T03:52:03.949Z,472
2017-05-23T03:52:44.425Z,488
2017-05-23T03:53:25.813Z,512
2017-05-23T03:54:06.304Z,528
2017-05-23T03:54:46.793Z,548
2017-05-23T03:55:27.284Z,568
2017-05-23T03:56:07.790Z,584
2017-05-23T03:56:48.266Z,600
2017-05-23T03:57:28.713Z,620
2017-05-23T03:58:09.164Z,632
2017-05-23T03:58:49.626Z,652
2017-05-23T04:00:47.250Z,712
2017-05-23T04:01:27.727Z,736
2017-05-23T04:02:08.225Z,752
2017-05-23T04:02:49.561Z,776
2017-05-23T04:03:30.058Z,804
2017-05-23T04:04:10.546Z,832
2017-05-23T04:04:51.028Z,864
2017-05-23T04:05:31.542Z,904
2017-05-23T04:06:12.039Z,936
2017-05-23T04:06:52.512Z,964
2017-05-23T04:09:05.222Z,1076
2017-05-23T04:09:45.716Z,1104
2017-05-23T04:10:26.192Z,1132
2017-05-23T04:11:06.685Z,1156
2017-05-23T04:11:47.154Z,1172
2017-05-23T04:12:27.656Z,1180
2017-05-23T04:13:08.139Z,1188
2017-05-23T04:13:48.633Z,1200
2017-05-23T04:14:29.106Z,1204
2017-05-23T04:15:09.606Z,1212
2017-05-23T04:15:50.090Z,1216
2017-05-23T04:16:32.303Z,1216
2017-05-23T04:17:12.809Z,1208
2017-05-23T04:17:53.310Z,1200
2017-05-23T04:18:33.788Z,1192
2017-05-23T04:19:14.263Z,1188
2017-05-23T04:19:54.753Z,1184
2017-05-23T04:20:35.283Z,1188
2017-05-23T04:21:15.707Z,1192
2017-05-23T04:21:56.200Z,1196
2017-05-23T04:22:36.661Z,1204
2017-05-23T04:23:17.140Z,1220
2017-05-23T04:23:57.629Z,1228
2017-05-23T04:25:55.259Z,1244
2017-05-23T04:26:35.759Z,1236
2017-05-23T04:27:16.240Z,1240
2017-05-23T04:27:56.725Z,1240
2017-05-23T04:28:37.222Z,1244
2017-05-23T04:29:17.719Z,1256
2017-05-23T04:29:58.210Z,1276
2017-05-23T04:30:38.697Z,1296
2017-05-23T04:31:19.196Z,1316
2017-05-23T04:31:59.678Z,1340
2017-05-23T04:32:41.164Z,1372
2017-05-23T04:33:21.648Z,1404
2017-05-23T04:34:02.131Z,1448
2017-05-23T04:34:43.469Z,1488
2017-05-23T04:35:23.940Z,1532
2017-05-23T04:36:04.384Z,1556
2017-05-23T04:36:45.522Z,1584
2017-05-23T04:37:26.007Z,1616
2017-05-23T04:38:06.512Z,1652
2017-05-23T04:38:46.999Z,1692
2017-05-23T04:39:27.483Z,1732
2017-05-23T04:40:07.945Z,1752
2017-05-23T04:42:20.652Z,1824
2017-05-23T04:43:01.239Z,1844
2017-05-23T04:43:41.792Z,1856
2017-05-23T04:44:22.239Z,1884
2017-05-23T04:45:02.734Z,1916
2017-05-23T04:45:43.233Z,1952
2017-05-23T04:46:24.368Z,1996
2017-05-23T04:47:05.876Z,2028
2017-05-23T04:47:46.375Z,2056
2017-05-23T04:48:26.858Z,2096
2017-05-23T04:49:08.737Z,2140
2017-05-23T04:49:49.224Z,2172
2017-05-23T04:50:29.729Z,2196
2017-05-23T04:51:10.197Z,2236
2017-05-23T04:51:50.658Z,2276
2017-05-23T04:52:31.155Z,2300
2017-05-23T04:53:11.642Z,2328
2017-05-23T04:53:53.740Z,2348
2017-05-23T04:54:34.746Z,2360
2017-05-23T04:55:15.222Z,2396
2017-05-23T04:55:55.717Z,2420
2017-05-23T04:56:36.215Z,2456
2017-05-23T04:57:16.700Z,2492
2017-05-23T04:57:57.205Z,2516
2017-05-23T04:58:37.701Z,2548
2017-05-23T04:59:19.059Z,2568
2017-05-23T05:00:00.250Z,2572
2017-05-23T05:00:40.726Z,2592
2017-05-23T05:01:21.211Z,2608
2017-05-23T05:02:02.241Z,2624
2017-05-23T05:02:42.741Z,2620
2017-05-23T05:03:23.226Z,2604
2017-05-23T05:04:03.730Z,2568
2017-05-23T05:04:44.236Z,2516
2017-05-23T05:05:24.741Z,2500
2017-05-23T05:06:05.250Z,2504
2017-05-23T05:06:45.732Z,2516
2017-05-23T05:07:26.233Z,2520
2017-05-23T05:08:06.735Z,2544
2017-05-23T05:08:47.237Z,2572
2017-05-23T05:09:27.719Z,2592
2017-05-23T05:10:08.177Z,2608
2017-05-23T05:10:48.703Z,2636
2017-05-23T05:11:30.062Z,2664
2017-05-23T05:12:10.552Z,2684
2017-05-23T05:12:51.062Z,2696
2017-05-23T05:13:31.509Z,2704
2017-05-23T05:15:29.825Z,2752
2017-05-23T05:16:10.309Z,2772
2017-05-23T05:16:50.788Z,2764
2017-05-23T05:17:31.269Z,2768
2017-05-23T05:18:11.768Z,2752
2017-05-23T05:18:52.263Z,2740
2017-05-23T05:19:32.741Z,2740
2017-05-23T05:20:13.241Z,2752
2017-05-23T05:20:53.751Z,2768
2017-05-23T05:21:34.248Z,2796
2017-05-23T05:24:07.264Z,3000
2017-05-23T05:24:48.336Z,3100
2017-05-23T05:25:28.881Z,3208
2017-05-23T05:26:09.321Z,3292
2017-05-23T05:26:49.808Z,3360
2017-05-23T05:27:30.850Z,3420
2017-05-23T05:28:11.330Z,3480
2017-05-23T05:28:51.805Z,3520
2017-05-23T05:29:32.301Z,3572
2017-05-23T05:30:12.794Z,3588
2017-05-23T05:30:53.279Z,3592
2017-05-23T05:31:34.339Z,3640
2017-05-23T05:32:14.814Z,3736
2017-05-23T05:32:55.314Z,3884
2017-05-23T05:33:36.578Z,4060
2017-05-23T05:34:17.063Z,4224
2017-05-23T05:34:57.547Z,4444
2017-05-23T05:35:38.048Z,4728
2017-05-23T05:36:18.557Z,4992
2017-05-23T05:36:59.044Z,5276
2017-05-23T05:37:39.522Z,5564
2017-05-23T05:38:20.764Z,5816
2017-05-23T05:39:01.215Z,6056
2017-05-23T05:39:41.656Z,6328
2017-05-23T05:40:22.139Z,6624
2017-05-23T05:41:02.608Z,6780
2017-05-23T05:41:43.763Z,6968
2017-05-23T05:42:24.236Z,7084
2017-05-23T05:43:04.712Z,7024
2017-05-23T05:43:45.163Z,6892
2017-05-23T05:44:25.669Z,6656
2017-05-23T05:45:06.149Z,6880
2017-05-23T05:45:47.559Z,6560
2017-05-23T05:46:28.032Z,7056
2017-05-23T05:47:08.525Z,6784
2017-05-23T05:47:49.030Z,7476
2017-05-23T05:48:30.345Z,7836
2017-05-23T05:49:10.832Z,7748
2017-05-23T05:49:51.315Z,8504
2017-05-23T05:50:31.792Z,7944
2017-05-23T05:51:12.250Z,8528
2017-05-23T05:51:52.765Z,8348
2017-05-23T05:52:33.256Z,8480
2017-05-23T05:53:14.350Z,9212
2017-05-23T05:53:56.764Z,10924
2017-05-23T05:54:37.274Z,11772
2017-05-23T05:55:17.723Z,11640
2017-05-23T05:55:58.780Z,12892
2017-05-23T05:56:39.286Z,13312
2017-05-23T05:57:19.753Z,10784
2017-05-23T05:58:00.247Z,9944
2017-05-23T05:58:40.742Z,9892
2017-05-23T05:59:22.856Z,12800
2017-05-23T06:00:03.349Z,9088
2017-05-23T06:00:43.855Z,8864
2017-05-23T06:01:24.329Z,8572
2017-05-23T06:02:04.811Z,8532
2017-05-23T06:02:45.303Z,8380
2017-05-23T06:03:25.778Z,8092
2017-05-23T06:04:06.273Z,7896
2017-05-23T06:04:46.767Z,7768
2017-05-23T06:05:27.263Z,7792
2017-05-23T06:06:07.760Z,7908
2017-05-23T06:06:48.253Z,8140
2017-05-23T06:07:28.770Z,8336
2017-05-23T06:08:09.237Z,8576
2017-05-23T06:08:49.743Z,8884
2017-05-23T06:09:30.257Z,9160
2017-05-23T06:10:10.750Z,9372
2017-05-23T06:10:51.246Z,9704
2017-05-23T06:11:32.484Z,9960
2017-05-23T06:12:12.972Z,10352
2017-05-23T06:12:53.459Z,11208
2017-05-23T06:13:33.952Z,11580
2017-05-23T06:14:14.444Z,12264
2017-05-23T06:14:54.929Z,12476
2017-05-23T06:15:35.431Z,13004
2017-05-23T06:16:15.931Z,16352
2017-05-23T06:16:56.433Z,15460
2017-05-23T06:17:36.920Z,14780
2017-05-23T06:18:17.415Z,14724
2017-05-23T06:18:57.909Z,13292
2017-05-23T06:19:38.356Z,17344
2017-05-23T06:20:18.826Z,19424
2017-05-23T06:20:59.297Z,19520
2017-05-23T06:21:39.809Z,17760
2017-05-23T06:22:20.252Z,22176
2017-05-23T06:23:00.685Z,25152
2017-05-23T06:23:41.162Z,27392
2017-05-23T06:26:09.102Z,26784
2017-05-23T06:26:49.612Z,29248
2017-05-23T06:27:30.139Z,30144
2017-05-23T06:28:10.670Z,22432
2017-05-23T06:28:51.178Z,26368
2017-05-23T06:29:31.717Z,32000
2017-05-23T06:30:12.212Z,25056
2017-05-23T06:30:52.695Z,30816
2017-05-23T06:31:34.089Z,31008
2017-05-23T06:32:14.553Z,32800
2017-05-23T06:32:55.037Z,27328
2017-05-23T06:33:35.554Z,26368
2017-05-23T06:34:16.054Z,32096
2017-05-23T06:34:56.547Z,25504
2017-05-23T06:35:37.048Z,17472
2017-05-23T06:36:17.527Z,22048
2017-05-23T06:36:58.029Z,21504
2017-05-23T06:39:17.762Z,25216
2017-05-23T06:39:58.236Z,27552
2017-05-23T06:40:39.430Z,26624
2017-05-23T06:41:19.900Z,27424
2017-05-23T06:42:00.454Z,28704
2017-05-23T06:42:40.909Z,27584
2017-05-23T06:43:21.439Z,29440
2017-05-23T06:44:01.931Z,28704
2017-05-23T06:44:42.451Z,29376
2017-05-23T06:45:22.949Z,29440
2017-05-23T06:47:56.401Z,44000
2017-05-23T06:48:36.851Z,60160
2017-05-23T06:49:17.306Z,64448
2017-05-23T06:49:57.712Z,55264
2017-05-23T06:50:38.205Z,42656
2017-05-23T06:51:18.646Z,60640
2017-05-23T06:51:59.174Z,50144
2017-05-23T06:52:39.592Z,48480
2017-05-23T06:53:20.207Z,38208
2017-05-23T06:54:00.934Z,52992
2017-05-23T06:54:41.490Z,47200
2017-05-23T06:55:21.971Z,39360
2017-05-23T06:56:03.086Z,40672
2017-05-23T06:56:43.512Z,29280
2017-05-23T06:58:41.205Z,38592
2017-05-23T06:59:21.683Z,36032
2017-05-23T07:00:02.171Z,26336
2017-05-23T07:00:43.418Z,49184
2017-05-23T07:01:24.726Z,56896
2017-05-23T07:02:05.245Z,65472
2017-05-23T07:02:45.715Z,59168
2017-05-23T07:03:26.205Z,59840
2017-05-23T07:05:44.047Z,53216
2017-05-23T07:06:24.520Z,27488
2017-05-23T07:07:05.036Z,37472
2017-05-23T07:07:45.558Z,55264
2017-05-23T07:08:26.087Z,56032
2017-05-23T07:09:06.514Z,50112
2017-05-23T07:11:04.360Z,33632
2017-05-23T07:11:44.725Z,24032
2017-05-23T07:12:25.202Z,19136
2017-05-23T07:13:05.638Z,21696
2017-05-23T07:13:46.138Z,22048
2017-05-23T07:14:26.588Z,22208
2017-05-23T07:15:07.052Z,24448
2017-05-23T07:15:47.546Z,24224
2017-05-23T07:16:28.046Z,26528
2017-05-23T07:17:08.492Z,24288
2017-05-23T07:17:48.994Z,22592
2017-05-23T07:18:29.457Z,22080
2017-05-23T07:19:10.043Z,21632
2017-05-23T07:19:50.410Z,20480
2017-05-23T07:20:30.874Z,20256
2017-05-23T07:21:11.386Z,18112
2017-05-23T07:21:51.942Z,17888
2017-05-23T07:22:32.433Z,16384
2017-05-23T07:23:12.907Z,15660
2017-05-23T07:23:53.429Z,16804
2017-05-23T07:24:33.908Z,13804
2017-05-23T07:25:14.408Z,15328
2017-05-23T07:25:54.876Z,12952
2017-05-23T07:26:35.319Z,20160
2017-05-23T07:27:15.773Z,13600
2017-05-23T07:27:56.229Z,36832
2017-05-23T07:28:36.693Z,38656
2017-05-23T07:29:17.191Z,36640
2017-05-23T07:29:57.734Z,34880
2017-05-23T07:30:38.315Z,29824
2017-05-23T07:31:18.825Z,23008
2017-05-23T07:31:59.326Z,19264
2017-05-23T07:32:39.781Z,17952
2017-05-23T07:33:20.271Z,17760
2017-05-23T07:34:00.789Z,17332
2017-05-23T07:34:41.337Z,17168
2017-05-23T07:35:21.815Z,16924
2017-05-23T07:36:02.309Z,16956
2017-05-23T07:36:42.825Z,16972
2017-05-23T07:37:23.388Z,16764
2017-05-23T07:38:03.968Z,16568
2017-05-23T07:38:44.398Z,16512
2017-05-23T07:39:24.888Z,16412
2017-05-23T07:40:05.499Z,16328
2017-05-23T07:40:45.897Z,16076
2017-05-23T07:41:26.303Z,16156
2017-05-23T07:42:06.823Z,16440
2017-05-23T07:42:47.281Z,16908
2017-05-23T07:43:27.713Z,17392
2017-05-23T07:44:08.195Z,18176
2017-05-23T07:44:48.739Z,18496
2017-05-23T07:45:29.183Z,20064
2017-05-23T07:46:09.614Z,22720
2017-05-23T07:46:50.077Z,28288
2017-05-23T07:47:30.593Z,32544
2017-05-23T07:48:11.117Z,42080
2017-05-23T07:48:51.567Z,51616
2017-05-23T07:49:32.072Z,47552
2017-05-23T07:50:12.633Z,61600
2017-05-23T07:50:53.263Z,62432
2017-05-23T07:51:33.820Z,67040
2017-05-23T07:52:14.360Z,57152
2017-05-23T07:52:55.056Z,68832
2017-05-23T07:53:35.574Z,67552
2017-05-23T07:54:16.215Z,68512
2017-05-23T07:54:56.613Z,48608
2017-05-23T07:55:37.165Z,64000
2017-05-23T07:56:17.766Z,71680
2017-05-23T07:56:58.370Z,70848
2017-05-23T07:57:38.951Z,69920
2017-05-23T07:58:19.578Z,74528
2017-05-23T07:59:00.114Z,76000
2017-05-23T07:59:40.665Z,68768
2017-05-23T08:00:21.209Z,73952
2017-05-23T08:01:01.834Z,75904
2017-05-23T08:01:42.335Z,73280
2017-05-23T08:02:22.890Z,70432
2017-05-23T08:03:03.472Z,71488
2017-05-23T08:03:44.024Z,74304
2017-05-23T08:04:24.489Z,76768
2017-05-23T08:05:05.302Z,76576
2017-05-23T08:05:45.756Z,78336
2017-05-23T08:06:26.345Z,78624
2017-05-23T08:07:06.987Z,79200
2017-05-23T08:07:47.579Z,76320
2017-05-23T08:08:28.139Z,76032
2017-05-23T08:09:08.701Z,78528
2017-05-23T08:09:49.328Z,81152
2017-05-23T08:10:29.882Z,81440
2017-05-23T08:11:10.381Z,79424
2017-05-23T08:11:50.943Z,78656
2017-05-23T08:12:31.499Z,78880
2017-05-23T08:13:12.008Z,77760
2017-05-23T08:13:52.588Z,78912
2017-05-23T08:14:33.072Z,77696
2017-05-23T08:15:13.564Z,76192
2017-05-23T08:15:53.996Z,77664
2017-05-23T08:16:34.471Z,80128
2017-05-23T08:17:14.977Z,80672
2017-05-23T08:17:55.470Z,81376
2017-05-23T08:18:35.987Z,80480
2017-05-23T08:19:16.436Z,76672
2017-05-23T08:19:56.930Z,61824
2017-05-23T08:20:37.391Z,39712
2017-05-23T08:21:18.278Z,26784
2017-05-23T08:21:58.683Z,22656
2017-05-23T08:22:40.203Z,22144
2017-05-23T08:23:20.789Z,21824
2017-05-23T08:24:01.325Z,22112
2017-05-23T08:24:42.078Z,22336
2017-05-23T08:25:23.186Z,22496
2017-05-23T08:26:03.662Z,22528
2017-05-23T08:26:44.276Z,22368
2017-05-23T08:27:24.654Z,23072
2017-05-23T08:28:05.276Z,21984
2017-05-23T08:28:48.828Z,23264
2017-05-23T08:29:28.993Z,23904
2017-05-23T08:30:09.538Z,23840
2017-05-23T08:30:50.015Z,33024
2017-05-23T08:31:30.468Z,54208
2017-05-23T08:33:43.238Z,86528
2017-05-23T08:34:23.746Z,88928
2017-05-23T08:35:04.289Z,89760
2017-05-23T08:35:45.600Z,90880
2017-05-23T08:36:26.097Z,90624
2017-05-23T08:37:06.596Z,90752
2017-05-23T08:37:47.134Z,86944
2017-05-23T08:38:27.625Z,88384
2017-05-23T08:39:08.180Z,84928
2017-05-23T08:39:48.626Z,87584
2017-05-23T08:40:29.087Z,89600
2017-05-23T08:41:09.541Z,70624
2017-05-23T08:41:50.144Z,84896
2017-05-23T08:42:30.696Z,61088
2017-05-23T08:43:11.232Z,78400
2017-05-23T08:43:51.714Z,69024
2017-05-23T08:44:32.244Z,87904
2017-05-23T08:46:44.988Z,77984
2017-05-23T08:47:25.442Z,77504
2017-05-23T08:48:06.434Z,80832
2017-05-23T08:48:46.940Z,79808
2017-05-23T08:49:27.436Z,81312
2017-05-23T08:51:46.409Z,87744
2017-05-23T08:52:26.872Z,92416
2017-05-23T08:53:07.325Z,89600
2017-05-23T08:53:48.633Z,83200
2017-05-23T08:54:29.109Z,85696
2017-05-23T08:55:09.629Z,91424
2017-05-23T08:55:50.166Z,92160
2017-05-23T08:56:30.654Z,88128
2017-05-23T08:57:11.153Z,86656
2017-05-23T08:57:53.221Z,85024
2017-05-23T08:58:33.698Z,88768
2017-05-23T09:00:51.503Z,88384
2017-05-23T09:01:32.009Z,90048
2017-05-23T09:02:12.559Z,90912
2017-05-23T09:02:53.056Z,89920
2017-05-23T09:03:33.578Z,90848
2017-05-23T09:04:14.116Z,87040
2017-05-23T09:04:54.616Z,92832
2017-05-23T09:05:35.138Z,86176
2017-05-23T09:06:16.618Z,84384
2017-05-23T09:06:57.398Z,81984
2017-05-23T09:07:37.947Z,86848
2017-05-23T09:08:18.612Z,88032
2017-05-23T09:08:59.201Z,87776
2017-05-23T09:10:56.974Z,87232
2017-05-23T09:11:37.690Z,78624
2017-05-23T09:12:19.359Z,81280
2017-05-23T09:13:00.047Z,78112
2017-05-23T09:13:40.824Z,81376
2017-05-23T09:14:21.531Z,86080
2017-05-23T09:15:02.195Z,87680
2017-05-23T09:15:43.436Z,79488
2017-05-23T09:16:24.217Z,75392
2017-05-23T09:17:05.102Z,77920
2017-05-23T09:17:45.790Z,73312
2017-05-23T09:18:26.413Z,74240
2017-05-23T09:19:07.123Z,78624
2017-05-23T09:19:47.652Z,80384
2017-05-23T09:20:28.168Z,82368
2017-05-23T09:21:08.690Z,81056
2017-05-23T09:21:49.164Z,76928
2017-05-23T09:22:29.628Z,70912
2017-05-23T09:23:10.100Z,69600
2017-05-23T09:23:51.551Z,68736
2017-05-23T09:24:32.080Z,71680
2017-05-23T09:25:12.707Z,73568
2017-05-23T09:25:53.223Z,74176
2017-05-23T09:26:33.687Z,75392
2017-05-23T09:27:14.174Z,73760
2017-05-23T09:27:54.675Z,72512
2017-05-23T09:28:35.187Z,72320
2017-05-23T09:29:15.693Z,77920
2017-05-23T09:29:56.441Z,79616
2017-05-23T09:30:38.262Z,81216
2017-05-23T09:32:35.919Z,80320
2017-05-23T09:33:17.014Z,77376
2017-05-23T09:33:57.517Z,77728
2017-05-23T09:34:38.618Z,66368
2017-05-23T09:37:11.727Z,29696
2017-05-23T09:37:52.229Z,27968
2017-05-23T09:38:32.726Z,27680
2017-05-23T09:39:13.242Z,27136
2017-05-23T09:39:54.596Z,26784
2017-05-23T09:40:35.054Z,26368
2017-05-23T09:41:15.566Z,26016
2017-05-23T09:41:56.079Z,25824
2017-05-23T09:42:37.431Z,25248
2017-05-23T09:43:17.907Z,25312
2017-05-23T09:43:58.444Z,25312
2017-05-23T09:44:38.942Z,25088
2017-05-23T09:45:20.377Z,25152
2017-05-23T09:46:00.934Z,24800
2017-05-23T09:46:41.360Z,24480
2017-05-23T09:47:21.880Z,23872
2017-05-23T09:48:02.408Z,23648
2017-05-23T09:48:42.911Z,23488
2017-05-23T09:49:23.420Z,23520
2017-05-23T09:50:03.892Z,23488
2017-05-23T09:50:44.439Z,23296
2017-05-23T09:51:24.902Z,22496
2017-05-23T09:52:05.405Z,22432
2017-05-23T09:52:45.929Z,22880
2017-05-23T09:53:26.471Z,23136
2017-05-23T09:54:06.961Z,23072
2017-05-23T09:54:48.380Z,22336
2017-05-23T09:55:28.919Z,22560
2017-05-23T09:56:09.463Z,22144
2017-05-23T09:56:50.032Z,22272
2017-05-23T09:57:31.237Z,22368
2017-05-23T09:58:11.719Z,22656
2017-05-23T09:58:52.235Z,22688